SWA1896 KAUS-KDEN
Flight info
| Callsign | SWA1896 |
|---|---|
| Flight time | 1h 54m |
| Altitude | 36000 |
| Route | ELOEL3 ABI EXONE DOGIN ZIGEE NIIXX4 |
| Aircraft | B737/M-SDE2E3FGHIRWXY/LB1 |
Departure
| Time | 2026-05-04 18:13 |
|---|---|
| Airport | Austin Bergstrom International Airport (KAUS) |
Arrival
| Time | 2026-05-04 20:08 |
|---|---|
| Airport | Denver International Airport (KDEN) |
| Time | Latitude | Longitude | Altitude | Speed | Heading |
|---|---|---|---|---|---|
| 2026-05-04 17:56 | 30.20158 | -97.66555 | 526 ft | 0 kts | 338° |
| 2026-05-04 18:05 | 30.20146 | -97.66550 | 526 ft | 4 kts | 341° |
| 2026-05-04 18:05 | 30.20120 | -97.66542 | 526 ft | 4 kts | 353° |
| 2026-05-04 18:06 | 30.20081 | -97.66556 | 526 ft | 1 kts | 76° |
| 2026-05-04 18:06 | 30.20080 | -97.66561 | 526 ft | 0 kts | 76° |
| 2026-05-04 18:07 | 30.20080 | -97.66559 | 526 ft | 1 kts | 76° |
| 2026-05-04 18:08 | 30.20087 | -97.66511 | 526 ft | 11 kts | 88° |
| 2026-05-04 18:08 | 30.20048 | -97.66422 | 526 ft | 14 kts | 141° |
| 2026-05-04 18:08 | 30.19952 | -97.66390 | 526 ft | 15 kts | 172° |
| 2026-05-04 18:08 | 30.19914 | -97.66294 | 526 ft | 16 kts | 89° |
| 2026-05-04 18:09 | 30.19936 | -97.66008 | 526 ft | 14 kts | 46° |
| 2026-05-04 18:09 | 30.20196 | -97.65996 | 526 ft | 20 kts | 358° |
| 2026-05-04 18:10 | 30.20326 | -97.65998 | 526 ft | 15 kts | 6° |
| 2026-05-04 18:10 | 30.20370 | -97.65924 | 526 ft | 8 kts | 88° |
| 2026-05-04 18:10 | 30.20371 | -97.65909 | 527 ft | 0 kts | 88° |
| 2026-05-04 18:12 | 30.20371 | -97.65902 | 527 ft | 4 kts | 88° |
| 2026-05-04 18:12 | 30.20369 | -97.65832 | 528 ft | 12 kts | 103° |
| 2026-05-04 18:12 | 30.20270 | -97.65788 | 526 ft | 28 kts | 179° |
| 2026-05-04 18:13 | 30.19806 | -97.65776 | 523 ft | 105 kts | 179° |
| 2026-05-04 18:13 | 30.18869 | -97.65755 | 543 ft | 165 kts | 180° |
| 2026-05-04 18:13 | 30.16415 | -97.65708 | 2200 ft | 179 kts | 180° |
| 2026-05-04 18:14 | 30.15106 | -97.65680 | 2827 ft | 201 kts | 181° |
| 2026-05-04 18:14 | 30.13648 | -97.66086 | 3124 ft | 234 kts | 211° |
| 2026-05-04 18:14 | 30.12482 | -97.67457 | 3967 ft | 248 kts | 236° |
| 2026-05-04 18:15 | 30.11946 | -97.71423 | 5971 ft | 267 kts | 284° |
| 2026-05-04 18:15 | 30.14443 | -97.74465 | 8048 ft | 275 kts | 338° |
| 2026-05-04 18:15 | 30.16316 | -97.74993 | 9056 ft | 279 kts | 346° |
| 2026-05-04 18:16 | 30.18246 | -97.75367 | 9979 ft | 283 kts | 347° |
| 2026-05-04 18:16 | 30.20230 | -97.75718 | 10594 ft | 298 kts | 347° |
| 2026-05-04 18:16 | 30.22376 | -97.76100 | 10800 ft | 326 kts | 347° |
| 2026-05-04 18:17 | 30.27148 | -97.76969 | 11561 ft | 361 kts | 347° |
| 2026-05-04 18:17 | 30.29643 | -97.77430 | 12330 ft | 364 kts | 347° |
| 2026-05-04 18:17 | 30.34677 | -97.78374 | 13965 ft | 369 kts | 346° |
| 2026-05-04 18:18 | 30.37222 | -97.78857 | 14688 ft | 372 kts | 346° |
| 2026-05-04 18:18 | 30.39786 | -97.79346 | 15450 ft | 374 kts | 346° |
| 2026-05-04 18:18 | 30.42331 | -97.79833 | 16195 ft | 377 kts | 346° |
| 2026-05-04 18:18 | 30.44965 | -97.80337 | 16976 ft | 380 kts | 345° |
| 2026-05-04 18:19 | 30.50190 | -97.81340 | 18311 ft | 386 kts | 345° |
| 2026-05-04 18:19 | 30.52852 | -97.81851 | 18881 ft | 389 kts | 345° |
| 2026-05-04 18:19 | 30.55525 | -97.82364 | 19464 ft | 390 kts | 345° |
| 2026-05-04 18:20 | 30.58209 | -97.82879 | 20031 ft | 392 kts | 345° |
| 2026-05-04 18:20 | 30.60899 | -97.83396 | 20555 ft | 394 kts | 344° |
| 2026-05-04 18:20 | 30.63609 | -97.83917 | 21089 ft | 396 kts | 344° |
| 2026-05-04 18:20 | 30.66333 | -97.84441 | 21621 ft | 398 kts | 344° |
| 2026-05-04 18:21 | 30.69075 | -97.84969 | 22141 ft | 400 kts | 344° |
| 2026-05-04 18:21 | 30.71820 | -97.85499 | 22645 ft | 402 kts | 344° |
| 2026-05-04 18:21 | 30.74572 | -97.86084 | 23139 ft | 401 kts | 340° |
| 2026-05-04 18:21 | 30.77243 | -97.86993 | 23609 ft | 399 kts | 336° |
| 2026-05-04 18:22 | 30.79879 | -97.88014 | 24001 ft | 400 kts | 335° |
| 2026-05-04 18:22 | 30.82512 | -97.89044 | 24411 ft | 401 kts | 335° |
| 2026-05-04 18:22 | 30.85173 | -97.90059 | 24807 ft | 402 kts | 335° |
| 2026-05-04 18:22 | 30.87837 | -97.91057 | 25193 ft | 404 kts | 335° |
| 2026-05-04 18:23 | 30.90503 | -97.92088 | 25580 ft | 403 kts | 333° |
| 2026-05-04 18:23 | 30.93033 | -97.93442 | 25952 ft | 399 kts | 327° |
| 2026-05-04 18:23 | 30.95508 | -97.94917 | 26333 ft | 400 kts | 327° |
| 2026-05-04 18:23 | 30.97989 | -97.96404 | 26692 ft | 402 kts | 327° |
| 2026-05-04 18:24 | 31.00483 | -97.97891 | 27059 ft | 403 kts | 327° |
| 2026-05-04 18:24 | 31.02988 | -97.99376 | 27424 ft | 404 kts | 327° |
| 2026-05-04 18:24 | 31.05500 | -98.00859 | 27779 ft | 405 kts | 327° |
| 2026-05-04 18:24 | 31.08026 | -98.02348 | 28081 ft | 406 kts | 327° |
| 2026-05-04 18:25 | 31.10550 | -98.03836 | 28378 ft | 408 kts | 327° |
| 2026-05-04 18:25 | 31.13089 | -98.05334 | 28696 ft | 409 kts | 327° |
| 2026-05-04 18:25 | 31.15514 | -98.06948 | 29074 ft | 403 kts | 320° |
| 2026-05-04 18:25 | 31.17743 | -98.08890 | 29571 ft | 397 kts | 315° |
| 2026-05-04 18:26 | 31.19744 | -98.11063 | 30091 ft | 389 kts | 309° |
| 2026-05-04 18:26 | 31.21525 | -98.13418 | 30570 ft | 385 kts | 308° |
| 2026-05-04 18:26 | 31.23276 | -98.15771 | 30988 ft | 383 kts | 308° |
| 2026-05-04 18:26 | 31.25020 | -98.18123 | 31352 ft | 383 kts | 307° |
| 2026-05-04 18:27 | 31.26762 | -98.20470 | 31794 ft | 381 kts | 307° |
| 2026-05-04 18:27 | 31.28485 | -98.22787 | 32395 ft | 375 kts | 307° |
| 2026-05-04 18:27 | 31.30187 | -98.25070 | 32931 ft | 370 kts | 307° |
| 2026-05-04 18:27 | 31.31871 | -98.27329 | 33431 ft | 367 kts | 307° |
| 2026-05-04 18:28 | 31.33543 | -98.29572 | 33887 ft | 364 kts | 307° |
| 2026-05-04 18:28 | 31.35204 | -98.31799 | 34266 ft | 362 kts | 307° |
| 2026-05-04 18:28 | 31.36856 | -98.34017 | 34593 ft | 361 kts | 307° |
| 2026-05-04 18:28 | 31.38506 | -98.36232 | 34850 ft | 361 kts | 307° |
| 2026-05-04 18:29 | 31.40161 | -98.38456 | 35048 ft | 363 kts | 307° |
| 2026-05-04 18:29 | 31.41832 | -98.40705 | 35110 ft | 369 kts | 307° |
| 2026-05-04 18:29 | 31.45227 | -98.45273 | 35363 ft | 374 kts | 307° |
| 2026-05-04 18:30 | 31.48631 | -98.49854 | 35910 ft | 371 kts | 307° |
| 2026-05-04 18:30 | 31.50336 | -98.52151 | 35902 ft | 375 kts | 307° |
| 2026-05-04 18:31 | 31.53737 | -98.56736 | 35936 ft | 369 kts | 307° |
| 2026-05-04 18:31 | 31.57088 | -98.61258 | 35917 ft | 365 kts | 307° |
| 2026-05-04 18:32 | 31.60406 | -98.65744 | 35916 ft | 363 kts | 307° |
| 2026-05-04 18:32 | 31.63702 | -98.70207 | 35921 ft | 362 kts | 307° |
| 2026-05-04 18:33 | 31.67035 | -98.74729 | 35929 ft | 371 kts | 306° |
| 2026-05-04 18:33 | 31.70416 | -98.79318 | 35923 ft | 371 kts | 306° |
| 2026-05-04 18:34 | 31.73795 | -98.83905 | 35933 ft | 371 kts | 306° |
| 2026-05-04 18:34 | 31.77169 | -98.88494 | 35965 ft | 371 kts | 306° |
| 2026-05-04 18:35 | 31.80532 | -98.93072 | 35945 ft | 369 kts | 306° |
| 2026-05-04 18:35 | 31.83855 | -98.97602 | 35932 ft | 367 kts | 306° |
| 2026-05-04 18:36 | 31.87185 | -99.02147 | 35938 ft | 366 kts | 306° |
| 2026-05-04 18:36 | 31.89968 | -99.05951 | 35923 ft | 365 kts | 306° |
| 2026-05-04 18:37 | 31.93258 | -99.10453 | 35909 ft | 365 kts | 306° |
| 2026-05-04 18:37 | 31.96568 | -99.14987 | 35915 ft | 365 kts | 306° |
| 2026-05-04 18:38 | 31.99880 | -99.19529 | 35900 ft | 366 kts | 306° |
| 2026-05-04 18:38 | 32.03195 | -99.24082 | 35898 ft | 366 kts | 306° |
| 2026-05-04 18:39 | 32.06510 | -99.28639 | 35878 ft | 366 kts | 306° |
| 2026-05-04 18:39 | 32.09818 | -99.33191 | 35874 ft | 365 kts | 306° |
| 2026-05-04 18:40 | 32.13118 | -99.37740 | 35899 ft | 365 kts | 306° |
| 2026-05-04 18:40 | 32.16412 | -99.42285 | 35875 ft | 365 kts | 306° |
| 2026-05-04 18:41 | 32.19707 | -99.46837 | 35856 ft | 365 kts | 306° |
| 2026-05-04 18:41 | 32.23002 | -99.51395 | 35868 ft | 365 kts | 306° |
| 2026-05-04 18:42 | 32.26298 | -99.55960 | 35895 ft | 365 kts | 306° |
| 2026-05-04 18:42 | 32.29573 | -99.60501 | 35868 ft | 365 kts | 306° |
| 2026-05-04 18:43 | 32.32868 | -99.65075 | 35858 ft | 365 kts | 306° |
| 2026-05-04 18:43 | 32.36148 | -99.69635 | 35922 ft | 364 kts | 305° |
| 2026-05-04 18:44 | 32.39428 | -99.74201 | 35926 ft | 364 kts | 305° |
| 2026-05-04 18:44 | 32.42698 | -99.78756 | 35899 ft | 363 kts | 305° |
| 2026-05-04 18:45 | 32.46045 | -99.83248 | 35890 ft | 368 kts | 311° |
| 2026-05-04 18:45 | 32.50166 | -99.86941 | 35926 ft | 375 kts | 319° |
| 2026-05-04 18:46 | 32.54880 | -99.89660 | 35899 ft | 379 kts | 327° |
| 2026-05-04 18:46 | 32.59768 | -99.91980 | 35874 ft | 377 kts | 327° |
| 2026-05-04 18:47 | 32.64634 | -99.94285 | 35848 ft | 376 kts | 327° |
| 2026-05-04 18:47 | 32.69479 | -99.96603 | 35834 ft | 375 kts | 327° |
| 2026-05-04 18:48 | 32.74325 | -99.98935 | 35814 ft | 376 kts | 327° |
| 2026-05-04 18:48 | 32.79197 | -100.01288 | 35816 ft | 379 kts | 327° |
| 2026-05-04 18:49 | 32.84100 | -100.03657 | 35805 ft | 381 kts | 327° |
| 2026-05-04 18:49 | 32.88991 | -100.06022 | 35804 ft | 382 kts | 327° |
| 2026-05-04 18:50 | 32.93928 | -100.08411 | 35791 ft | 383 kts | 327° |
| 2026-05-04 18:50 | 32.98873 | -100.10807 | 35802 ft | 384 kts | 327° |
| 2026-05-04 18:51 | 33.03852 | -100.13223 | 35795 ft | 384 kts | 327° |
| 2026-05-04 18:51 | 33.08756 | -100.15605 | 35798 ft | 383 kts | 327° |
| 2026-05-04 18:52 | 33.13692 | -100.18006 | 35784 ft | 383 kts | 327° |
| 2026-05-04 18:52 | 33.18621 | -100.20406 | 35787 ft | 382 kts | 327° |
| 2026-05-04 18:53 | 33.23543 | -100.22807 | 35782 ft | 382 kts | 327° |
| 2026-05-04 18:53 | 33.28464 | -100.25210 | 35793 ft | 382 kts | 327° |
| 2026-05-04 18:54 | 33.33387 | -100.27617 | 35791 ft | 382 kts | 327° |
| 2026-05-04 18:54 | 33.38310 | -100.30027 | 35788 ft | 382 kts | 327° |
| 2026-05-04 18:55 | 33.43233 | -100.32440 | 35784 ft | 382 kts | 327° |
| 2026-05-04 18:55 | 33.50611 | -100.36061 | 35785 ft | 382 kts | 327° |
| 2026-05-04 18:56 | 33.55527 | -100.38478 | 35786 ft | 383 kts | 326° |
| 2026-05-04 18:56 | 33.60452 | -100.40903 | 35777 ft | 383 kts | 326° |
| 2026-05-04 18:57 | 33.65350 | -100.43316 | 35773 ft | 383 kts | 326° |
| 2026-05-04 18:57 | 33.70268 | -100.45743 | 35764 ft | 382 kts | 326° |
| 2026-05-04 18:58 | 33.75184 | -100.48171 | 35770 ft | 382 kts | 326° |
| 2026-05-04 18:58 | 33.80095 | -100.50601 | 35768 ft | 382 kts | 326° |
| 2026-05-04 18:59 | 33.85004 | -100.53032 | 35761 ft | 381 kts | 326° |
| 2026-05-04 18:59 | 33.89909 | -100.55464 | 35759 ft | 381 kts | 326° |
| 2026-05-04 19:00 | 33.94811 | -100.57899 | 35735 ft | 381 kts | 326° |
| 2026-05-04 19:00 | 33.99709 | -100.60333 | 35748 ft | 381 kts | 326° |
| 2026-05-04 19:01 | 34.04612 | -100.62776 | 35751 ft | 383 kts | 326° |
| 2026-05-04 19:01 | 34.09543 | -100.65234 | 35737 ft | 384 kts | 326° |
| 2026-05-04 19:02 | 34.14485 | -100.67700 | 35740 ft | 385 kts | 326° |
| 2026-05-04 19:02 | 34.19400 | -100.70158 | 35733 ft | 384 kts | 325° |
| 2026-05-04 19:03 | 34.24042 | -100.73139 | 35733 ft | 376 kts | 320° |
| 2026-05-04 19:03 | 34.28574 | -100.76300 | 35724 ft | 377 kts | 320° |
| 2026-05-04 19:04 | 34.33118 | -100.79464 | 35721 ft | 377 kts | 320° |
| 2026-05-04 19:04 | 34.37669 | -100.82622 | 35714 ft | 376 kts | 320° |
| 2026-05-04 19:05 | 34.42204 | -100.85766 | 35716 ft | 376 kts | 320° |
| 2026-05-04 19:05 | 34.46737 | -100.88912 | 35713 ft | 375 kts | 320° |
| 2026-05-04 19:06 | 34.51264 | -100.92057 | 35742 ft | 375 kts | 320° |
| 2026-05-04 19:06 | 34.55787 | -100.95204 | 35716 ft | 374 kts | 320° |
| 2026-05-04 19:07 | 34.60306 | -100.98351 | 35707 ft | 374 kts | 320° |
| 2026-05-04 19:07 | 34.64805 | -101.01489 | 35703 ft | 373 kts | 320° |
| 2026-05-04 19:08 | 34.69298 | -101.04626 | 35710 ft | 372 kts | 320° |
| 2026-05-04 19:08 | 34.73782 | -101.07763 | 35711 ft | 371 kts | 320° |
| 2026-05-04 19:09 | 34.78264 | -101.10902 | 35716 ft | 372 kts | 320° |
| 2026-05-04 19:09 | 34.82744 | -101.14042 | 35704 ft | 371 kts | 320° |
| 2026-05-04 19:10 | 34.87209 | -101.17177 | 35707 ft | 371 kts | 320° |
| 2026-05-04 19:10 | 34.91643 | -101.20292 | 35705 ft | 370 kts | 320° |
| 2026-05-04 19:11 | 34.96151 | -101.23352 | 35704 ft | 374 kts | 322° |
| 2026-05-04 19:11 | 35.00854 | -101.26114 | 35710 ft | 376 kts | 323° |
| 2026-05-04 19:12 | 35.07957 | -101.30215 | 35698 ft | 377 kts | 323° |
| 2026-05-04 19:13 | 35.12680 | -101.32965 | 35702 ft | 376 kts | 323° |
| 2026-05-04 19:13 | 35.17406 | -101.35731 | 35750 ft | 376 kts | 323° |
| 2026-05-04 19:14 | 35.22122 | -101.38499 | 35790 ft | 376 kts | 323° |
| 2026-05-04 19:14 | 35.26850 | -101.41279 | 35780 ft | 377 kts | 323° |
| 2026-05-04 19:15 | 35.31591 | -101.44070 | 35772 ft | 378 kts | 323° |
| 2026-05-04 19:15 | 35.36323 | -101.46858 | 35771 ft | 377 kts | 323° |
| 2026-05-04 19:16 | 35.41056 | -101.49651 | 35761 ft | 378 kts | 323° |
| 2026-05-04 19:16 | 35.45788 | -101.52447 | 35743 ft | 377 kts | 323° |
| 2026-05-04 19:17 | 35.50519 | -101.55247 | 35746 ft | 378 kts | 323° |
| 2026-05-04 19:17 | 35.55248 | -101.58048 | 35755 ft | 377 kts | 323° |
| 2026-05-04 19:18 | 35.59970 | -101.60849 | 35768 ft | 377 kts | 323° |
| 2026-05-04 19:18 | 35.64660 | -101.63636 | 35762 ft | 377 kts | 323° |
| 2026-05-04 19:19 | 35.69373 | -101.66439 | 35780 ft | 377 kts | 322° |
| 2026-05-04 19:19 | 35.74093 | -101.69250 | 35739 ft | 377 kts | 322° |
| 2026-05-04 19:20 | 35.78805 | -101.72060 | 35753 ft | 376 kts | 322° |
| 2026-05-04 19:20 | 35.83514 | -101.74872 | 35764 ft | 376 kts | 322° |
| 2026-05-04 19:21 | 35.88221 | -101.77687 | 35689 ft | 376 kts | 322° |
| 2026-05-04 19:21 | 35.92925 | -101.80503 | 35723 ft | 376 kts | 322° |
| 2026-05-04 19:22 | 35.97637 | -101.83330 | 35690 ft | 377 kts | 322° |
| 2026-05-04 19:22 | 36.02351 | -101.86160 | 35682 ft | 377 kts | 322° |
| 2026-05-04 19:23 | 36.07031 | -101.88973 | 35675 ft | 376 kts | 322° |
| 2026-05-04 19:23 | 36.11739 | -101.91807 | 35686 ft | 376 kts | 322° |
| 2026-05-04 19:24 | 36.16445 | -101.94643 | 35705 ft | 376 kts | 322° |
| 2026-05-04 19:24 | 36.21154 | -101.97486 | 35693 ft | 376 kts | 322° |
| 2026-05-04 19:25 | 36.25860 | -102.00330 | 35661 ft | 376 kts | 322° |
| 2026-05-04 19:25 | 36.29798 | -102.02712 | 35665 ft | 375 kts | 321° |
| 2026-05-04 19:26 | 36.34457 | -102.05535 | 35657 ft | 375 kts | 321° |
| 2026-05-04 19:26 | 36.39170 | -102.08395 | 35700 ft | 375 kts | 321° |
| 2026-05-04 19:27 | 36.43834 | -102.11230 | 35660 ft | 376 kts | 321° |
| 2026-05-04 19:27 | 36.48532 | -102.14088 | 35660 ft | 376 kts | 321° |
| 2026-05-04 19:28 | 36.53229 | -102.16949 | 35671 ft | 376 kts | 321° |
| 2026-05-04 19:28 | 36.57928 | -102.19815 | 35661 ft | 376 kts | 321° |
| 2026-05-04 19:29 | 36.62624 | -102.22684 | 35676 ft | 376 kts | 321° |
| 2026-05-04 19:29 | 36.67323 | -102.25558 | 35663 ft | 376 kts | 321° |
| 2026-05-04 19:30 | 36.72009 | -102.28427 | 35649 ft | 375 kts | 321° |
| 2026-05-04 19:30 | 36.76690 | -102.31297 | 35653 ft | 374 kts | 321° |
| 2026-05-04 19:31 | 36.81353 | -102.34161 | 35656 ft | 373 kts | 321° |
| 2026-05-04 19:31 | 36.86007 | -102.37024 | 35660 ft | 374 kts | 321° |
| 2026-05-04 19:32 | 36.90669 | -102.39897 | 35653 ft | 374 kts | 321° |
| 2026-05-04 19:32 | 36.95336 | -102.42775 | 35641 ft | 374 kts | 321° |
| 2026-05-04 19:33 | 37.00004 | -102.45659 | 35649 ft | 374 kts | 321° |
| 2026-05-04 19:33 | 37.04678 | -102.48550 | 35657 ft | 375 kts | 321° |
| 2026-05-04 19:34 | 37.09364 | -102.51452 | 35669 ft | 376 kts | 320° |
| 2026-05-04 19:34 | 37.14068 | -102.54370 | 35657 ft | 377 kts | 320° |
| 2026-05-04 19:35 | 37.18744 | -102.57273 | 35660 ft | 378 kts | 320° |
| 2026-05-04 19:35 | 37.23488 | -102.60223 | 35653 ft | 378 kts | 320° |
| 2026-05-04 19:36 | 37.28167 | -102.63136 | 35703 ft | 378 kts | 320° |
| 2026-05-04 19:36 | 37.32892 | -102.66084 | 35673 ft | 379 kts | 320° |
| 2026-05-04 19:37 | 37.37624 | -102.69039 | 35665 ft | 380 kts | 320° |
| 2026-05-04 19:37 | 37.42355 | -102.71998 | 35669 ft | 380 kts | 320° |
| 2026-05-04 19:38 | 37.47084 | -102.74959 | 35671 ft | 380 kts | 320° |
| 2026-05-04 19:38 | 37.51813 | -102.77924 | 35662 ft | 380 kts | 320° |
| 2026-05-04 19:39 | 37.56693 | -102.80658 | 35671 ft | 386 kts | 323° |
| 2026-05-04 19:39 | 37.61662 | -102.83263 | 35667 ft | 387 kts | 323° |
| 2026-05-04 19:40 | 37.66629 | -102.85884 | 35669 ft | 387 kts | 323° |
| 2026-05-04 19:40 | 37.71589 | -102.88532 | 35664 ft | 387 kts | 322° |
| 2026-05-04 19:41 | 37.76548 | -102.91195 | 35678 ft | 387 kts | 322° |
| 2026-05-04 19:41 | 37.81512 | -102.93868 | 35660 ft | 388 kts | 322° |
| 2026-05-04 19:42 | 37.86445 | -102.96527 | 35666 ft | 388 kts | 322° |
| 2026-05-04 19:42 | 37.91406 | -102.99205 | 35669 ft | 387 kts | 322° |
| 2026-05-04 19:43 | 37.96375 | -103.01893 | 35668 ft | 388 kts | 322° |
| 2026-05-04 19:43 | 38.01338 | -103.04581 | 35696 ft | 388 kts | 322° |
| 2026-05-04 19:44 | 38.06299 | -103.07271 | 35687 ft | 387 kts | 322° |
| 2026-05-04 19:44 | 38.11247 | -103.09957 | 35675 ft | 387 kts | 322° |
| 2026-05-04 19:45 | 38.16192 | -103.12647 | 35706 ft | 386 kts | 322° |
| 2026-05-04 19:45 | 38.21136 | -103.15342 | 35681 ft | 387 kts | 322° |
| 2026-05-04 19:46 | 38.26078 | -103.18039 | 35675 ft | 386 kts | 322° |
| 2026-05-04 19:46 | 38.31021 | -103.20740 | 35661 ft | 387 kts | 322° |
| 2026-05-04 19:47 | 38.35940 | -103.23431 | 35652 ft | 387 kts | 322° |
| 2026-05-04 19:47 | 38.40884 | -103.26146 | 35666 ft | 387 kts | 322° |
| 2026-05-04 19:48 | 38.45818 | -103.28874 | 35665 ft | 386 kts | 322° |
| 2026-05-04 19:48 | 38.50747 | -103.31604 | 35664 ft | 386 kts | 322° |
| 2026-05-04 19:49 | 38.55668 | -103.34332 | 35668 ft | 385 kts | 322° |
| 2026-05-04 19:49 | 38.60578 | -103.37059 | 35665 ft | 385 kts | 322° |
| 2026-05-04 19:50 | 38.65498 | -103.39796 | 35665 ft | 385 kts | 322° |
| 2026-05-04 19:50 | 38.70433 | -103.42550 | 35149 ft | 392 kts | 323° |
| 2026-05-04 19:50 | 38.72926 | -103.43939 | 34539 ft | 392 kts | 323° |
| 2026-05-04 19:51 | 38.75423 | -103.45332 | 33867 ft | 391 kts | 324° |
| 2026-05-04 19:51 | 38.77931 | -103.46732 | 33053 ft | 393 kts | 324° |
| 2026-05-04 19:51 | 38.80385 | -103.48213 | 32420 ft | 383 kts | 319° |
| 2026-05-04 19:51 | 38.82482 | -103.50205 | 31562 ft | 372 kts | 307° |
| 2026-05-04 19:52 | 38.84207 | -103.52633 | 30968 ft | 367 kts | 305° |
| 2026-05-04 19:52 | 38.85901 | -103.55077 | 30426 ft | 365 kts | 306° |
| 2026-05-04 19:52 | 38.87588 | -103.57502 | 29862 ft | 363 kts | 306° |
| 2026-05-04 19:52 | 38.89269 | -103.59906 | 29281 ft | 361 kts | 306° |
| 2026-05-04 19:53 | 38.90943 | -103.62288 | 28702 ft | 358 kts | 307° |
| 2026-05-04 19:53 | 38.92603 | -103.64647 | 28178 ft | 354 kts | 307° |
| 2026-05-04 19:53 | 38.94248 | -103.66983 | 27648 ft | 351 kts | 307° |
| 2026-05-04 19:53 | 38.95876 | -103.69297 | 27133 ft | 349 kts | 307° |
| 2026-05-04 19:54 | 38.97506 | -103.71616 | 26624 ft | 349 kts | 307° |
| 2026-05-04 19:54 | 38.99138 | -103.73939 | 26137 ft | 351 kts | 307° |
| 2026-05-04 19:54 | 39.00794 | -103.76301 | 25600 ft | 361 kts | 308° |
| 2026-05-04 19:54 | 39.02501 | -103.78737 | 24979 ft | 371 kts | 308° |
| 2026-05-04 19:55 | 39.04232 | -103.81206 | 24403 ft | 371 kts | 308° |
| 2026-05-04 19:55 | 39.05955 | -103.83663 | 23863 ft | 368 kts | 308° |
| 2026-05-04 19:55 | 39.07667 | -103.86106 | 23304 ft | 367 kts | 308° |
| 2026-05-04 19:55 | 39.09370 | -103.88539 | 22707 ft | 364 kts | 308° |
| 2026-05-04 19:56 | 39.11060 | -103.90955 | 22143 ft | 362 kts | 309° |
| 2026-05-04 19:56 | 39.12735 | -103.93353 | 21629 ft | 358 kts | 308° |
| 2026-05-04 19:56 | 39.14388 | -103.95741 | 21220 ft | 357 kts | 308° |
| 2026-05-04 19:56 | 39.16063 | -103.98178 | 20817 ft | 377 kts | 308° |
| 2026-05-04 19:57 | 39.17868 | -104.00813 | 20365 ft | 406 kts | 309° |
| 2026-05-04 19:57 | 39.19761 | -104.03603 | 19879 ft | 415 kts | 308° |
| 2026-05-04 19:57 | 39.21624 | -104.06455 | 19344 ft | 416 kts | 308° |
| 2026-05-04 19:57 | 39.23439 | -104.09285 | 18866 ft | 414 kts | 308° |
| 2026-05-04 19:58 | 39.25270 | -104.12151 | 18390 ft | 412 kts | 308° |
| 2026-05-04 19:58 | 39.27086 | -104.14992 | 17992 ft | 411 kts | 308° |
| 2026-05-04 19:58 | 39.28913 | -104.17844 | 17474 ft | 411 kts | 308° |
| 2026-05-04 19:58 | 39.30739 | -104.20689 | 16974 ft | 410 kts | 308° |
| 2026-05-04 19:59 | 39.32550 | -104.23508 | 16513 ft | 408 kts | 308° |
| 2026-05-04 19:59 | 39.34360 | -104.26325 | 16045 ft | 407 kts | 308° |
| 2026-05-04 19:59 | 39.36162 | -104.29130 | 15570 ft | 404 kts | 308° |
| 2026-05-04 19:59 | 39.37950 | -104.31917 | 15118 ft | 401 kts | 308° |
| 2026-05-04 20:00 | 39.39717 | -104.34674 | 14659 ft | 396 kts | 308° |
| 2026-05-04 20:00 | 39.41463 | -104.37401 | 14221 ft | 391 kts | 308° |
| 2026-05-04 20:00 | 39.43191 | -104.40103 | 13772 ft | 388 kts | 308° |
| 2026-05-04 20:00 | 39.44909 | -104.42789 | 13298 ft | 387 kts | 309° |
| 2026-05-04 20:01 | 39.46564 | -104.45378 | 12835 ft | 384 kts | 309° |
| 2026-05-04 20:01 | 39.48299 | -104.48096 | 12381 ft | 380 kts | 308° |
| 2026-05-04 20:01 | 39.49973 | -104.50720 | 11955 ft | 373 kts | 308° |
| 2026-05-04 20:01 | 39.51577 | -104.53239 | 11516 ft | 354 kts | 309° |
| 2026-05-04 20:02 | 39.53101 | -104.55630 | 11131 ft | 335 kts | 309° |
| 2026-05-04 20:02 | 39.54542 | -104.57895 | 10820 ft | 317 kts | 308° |
| 2026-05-04 20:02 | 39.55914 | -104.60054 | 10443 ft | 304 kts | 309° |
| 2026-05-04 20:02 | 39.57229 | -104.62123 | 10098 ft | 291 kts | 308° |
| 2026-05-04 20:03 | 39.58656 | -104.63874 | 9798 ft | 280 kts | 330° |
| 2026-05-04 20:03 | 39.60488 | -104.64517 | 9516 ft | 268 kts | 353° |
| 2026-05-04 20:03 | 39.62336 | -104.64515 | 9348 ft | 264 kts | 0° |
| 2026-05-04 20:03 | 39.64177 | -104.64428 | 9013 ft | 262 kts | 358° |
| 2026-05-04 20:04 | 39.65974 | -104.64381 | 8684 ft | 254 kts | 358° |
| 2026-05-04 20:04 | 39.67713 | -104.64359 | 8375 ft | 246 kts | 357° |
| 2026-05-04 20:04 | 39.69400 | -104.64341 | 8041 ft | 239 kts | 358° |
| 2026-05-04 20:04 | 39.71041 | -104.64321 | 7723 ft | 233 kts | 356° |
| 2026-05-04 20:05 | 39.72632 | -104.64300 | 7447 ft | 225 kts | 357° |
| 2026-05-04 20:05 | 39.74183 | -104.64281 | 7160 ft | 219 kts | 358° |
| 2026-05-04 20:05 | 39.75661 | -104.64263 | 6911 ft | 205 kts | 357° |
| 2026-05-04 20:05 | 39.77039 | -104.64246 | 6653 ft | 191 kts | 358° |
| 2026-05-04 20:06 | 39.78301 | -104.64230 | 6456 ft | 173 kts | 356° |
| 2026-05-04 20:06 | 39.79461 | -104.64216 | 6204 ft | 162 kts | 356° |
| 2026-05-04 20:06 | 39.80546 | -104.64203 | 5995 ft | 156 kts | 356° |
| 2026-05-04 20:06 | 39.81618 | -104.64186 | 5756 ft | 154 kts | 355° |
| 2026-05-04 20:07 | 39.82693 | -104.64174 | 5502 ft | 155 kts | 356° |
| 2026-05-04 20:07 | 39.83752 | -104.64162 | 5372 ft | 143 kts | 355° |
| 2026-05-04 20:07 | 39.84654 | -104.64155 | 5362 ft | 113 kts | 0° |
| 2026-05-04 20:07 | 39.85279 | -104.64147 | 5356 ft | 51 kts | 0° |
| 2026-05-04 20:08 | 39.85601 | -104.64226 | 5353 ft | 45 kts | 332° |
| 2026-05-04 20:08 | 39.85855 | -104.64411 | 5351 ft | 39 kts | 330° |
| 2026-05-04 20:08 | 39.86081 | -104.64577 | 5349 ft | 36 kts | 330° |
| 2026-05-04 20:08 | 39.86287 | -104.64728 | 5348 ft | 32 kts | 330° |
| 2026-05-04 20:09 | 39.86451 | -104.64849 | 5353 ft | 20 kts | 329° |
| 2026-05-04 20:09 | 39.86491 | -104.65010 | 5358 ft | 22 kts | 270° |
| 2026-05-04 20:09 | 39.86493 | -104.65233 | 5362 ft | 27 kts | 270° |
| 2026-05-04 20:09 | 39.86495 | -104.65492 | 5366 ft | 29 kts | 270° |
| 2026-05-04 20:10 | 39.86497 | -104.65744 | 5371 ft | 27 kts | 270° |
| 2026-05-04 20:10 | 39.86499 | -104.65979 | 5376 ft | 25 kts | 270° |
| 2026-05-04 20:10 | 39.86500 | -104.66198 | 5377 ft | 24 kts | 270° |
| 2026-05-04 20:10 | 39.86502 | -104.66419 | 5376 ft | 24 kts | 270° |
| 2026-05-04 20:11 | 39.86471 | -104.66623 | 5376 ft | 23 kts | 264° |
| 2026-05-04 20:11 | 39.86470 | -104.66824 | 5376 ft | 22 kts | 270° |
| 2026-05-04 20:11 | 39.86471 | -104.66952 | 5376 ft | 17 kts | 267° |
| 2026-05-04 20:11 | 39.86371 | -104.67011 | 5376 ft | 13 kts | 179° |
| 2026-05-04 20:12 | 39.86353 | -104.67011 | 5375 ft | 1 kts | 181° |
| 2026-05-04 20:12 | 39.86352 | -104.67011 | 5375 ft | 0 kts | 181° |